Time,TemperatureF,DewpointF,PressureIn,WindDirection,WindDirectionDegrees,WindSpeedMPH,WindSpeedGustMPH,Humidity,HourlyPrecipIn,Conditions,Clouds,dailyrainin,SoftwareType,DateUTC
2013-01-13 00:00:00,39.8,37.1,30.08,WSW,248,0.0,0.0,90,0.01,,,0.02,WUHU216HW,2013-01-13 05:00:00,
2013-01-13 00:01:00,39.8,37.1,30.08,WSW,248,0.0,0.0,90,0.01,,,0.00,WUHU216HW,2013-01-13 05:01:00,
2013-01-13 00:02:00,39.8,37.1,30.08,WSW,248,0.0,0.0,90,0.01,,,0.00,WUHU216HW,2013-01-13 05:02:00,
2013-01-13 00:07:00,39.8,37.1,30.08,WSW,248,0.0,0.4,90,0.01,,,0.00,WUHU216HW,2013-01-13 05:07:00,
2013-01-13 00:12:00,39.8,37.1,30.08,WSW,248,0.0,0.4,90,0.01,,,0.00,WUHU216HW,2013-01-13 05:12:00,
2013-01-13 00:17:00,39.8,37.1,30.07,WSW,248,0.0,1.1,90,0.01,,,0.00,WUHU216HW,2013-01-13 05:17:00,
2013-01-13 00:22:00,39.8,37.1,30.07,WSW,248,0.0,1.1,90,0.01,,,0.00,WUHU216HW,2013-01-13 05:22:00,
2013-01-13 00:27:00,39.8,37.1,30.08,SW,225,0.4,0.7,90,0.01,,,0.00,WUHU216HW,2013-01-13 05:27:00,
2013-01-13 00:32:00,39.8,37.1,30.09,WSW,248,0.0,1.1,90,0.01,,,0.00,WUHU216HW,2013-01-13 05:32:00,
2013-01-13 00:37:00,39.8,37.1,30.08,WSW,248,0.0,1.1,90,0.01,,,0.00,WUHU216HW,2013-01-13 05:37:00,
2013-01-13 00:42:00,39.8,37.1,30.08,WSW,248,0.0,0.7,90,0.01,,,0.00,WUHU216HW,2013-01-13 05:42:00,
2013-01-13 00:47:00,39.6,36.9,30.07,WSW,248,0.0,0.7,90,0.00,,,0.00,WUHU216HW,2013-01-13 05:47:00,
2013-01-13 00:53:00,39.6,36.9,30.07,SW,225,0.0,0.0,90,0.00,,,0.00,WUHU216HW,2013-01-13 05:53:00,
2013-01-13 00:58:00,39.6,36.9,30.07,WSW,248,0.0,0.0,90,0.00,,,0.00,WUHU216HW,2013-01-13 05:58:00,
2013-01-13 01:03:00,39.6,36.9,30.07,WSW,248,0.0,0.0,90,0.00,,,0.00,WUHU216HW,2013-01-13 06:03:00,
2013-01-13 01:08:00,39.6,36.9,30.06,WSW,248,0.0,0.0,90,0.00,,,0.00,WUHU216HW,2013-01-13 06:08:00,
2013-01-13 01:13:00,39.6,36.9,30.07,WSW,248,0.0,0.0,90,0.00,,,0.00,WUHU216HW,2013-01-13 06:13:00,
2013-01-13 01:18:00,39.6,36.9,30.07,WSW,248,0.0,0.7,90,0.00,,,0.00,WUHU216HW,2013-01-13 06:18:00,
2013-01-13 01:23:00,39.4,36.7,30.07,South,180,0.0,0.7,90,0.00,,,0.00,WUHU216HW,2013-01-13 06:23:00,
2013-01-13 01:28:00,39.4,36.7,30.07,SW,225,0.0,0.4,90,0.00,,,0.00,WUHU216HW,2013-01-13 06:28:00,
2013-01-13 01:34:00,39.4,36.7,30.07,SW,225,0.0,0.4,90,0.00,,,0.00,WUHU216HW,2013-01-13 06:34:00,
2013-01-13 01:39:00,39.4,36.7,30.07,SW,225,0.0,0.2,90,0.00,,,0.00,WUHU216HW,2013-01-13 06:39:00,
2013-01-13 01:44:00,39.4,36.7,30.06,ESE,113,0.4,0.9,90,0.00,,,0.00,WUHU216HW,2013-01-13 06:44:00,
2013-01-13 01:49:00,39.4,36.7,30.06,ESE,113,0.4,0.9,90,0.00,,,0.00,WUHU216HW,2013-01-13 06:49:00,
2013-01-13 01:54:00,39.4,36.7,30.06,East,90,0.0,0.7,90,0.00,,,0.00,WUHU216HW,2013-01-13 06:54:00,
2013-01-13 01:59:00,39.4,36.7,30.05,ESE,113,0.9,0.9,90,0.00,,,0.00,WUHU216HW,2013-01-13 06:59:00,
2013-01-13 02:04:00,39.4,36.7,30.05,ESE,113,0.2,0.9,90,0.00,,,0.00,WUHU216HW,2013-01-13 07:04:00,
2013-01-13 02:09:00,39.4,36.7,30.06,East,90,0.0,0.9,90,0.00,,,0.00,WUHU216HW,2013-01-13 07:09:00,
2013-01-13 02:14:00,39.4,36.7,30.07,SE,135,0.7,0.9,90,0.00,,,0.00,WUHU216HW,2013-01-13 07:14:00,
2013-01-13 02:20:00,39.2,36.5,30.05,ESE,113,0.0,0.7,90,0.00,,,0.00,WUHU216HW,2013-01-13 07:20:00,
2013-01-13 02:25:00,38.9,36.2,30.05,ESE,113,0.4,0.7,90,0.00,,,0.00,WUHU216HW,2013-01-13 07:25:00,
2013-01-13 02:30:00,38.9,36.2,30.05,ESE,113,0.0,0.4,90,0.00,,,0.00,WUHU216HW,2013-01-13 07:30:00,
2013-01-13 02:35:00,38.9,36.2,30.05,ESE,113,0.4,0.7,90,0.00,,,0.00,WUHU216HW,2013-01-13 07:35:00,
2013-01-13 02:40:00,38.7,36.0,30.05,South,180,0.4,0.9,90,0.00,,,0.00,WUHU216HW,2013-01-13 07:40:00,
2013-01-13 02:45:00,38.5,35.8,30.06,WSW,248,0.0,0.9,90,0.00,,,0.00,WUHU216HW,2013-01-13 07:45:00,
2013-01-13 02:50:00,38.3,35.6,30.06,SSW,203,0.0,0.9,90,0.00,,,0.00,WUHU216HW,2013-01-13 07:50:00,
2013-01-13 02:55:00,38.3,35.6,30.07,SW,225,0.4,0.9,90,0.00,,,0.00,WUHU216HW,2013-01-13 07:55:00,
2013-01-13 03:00:00,38.1,35.4,30.07,SSE,158,0.4,0.9,90,0.00,,,0.00,WUHU216HW,2013-01-13 08:00:00,
2013-01-13 03:06:00,38.1,35.4,30.07,SE,135,0.0,0.9,90,0.00,,,0.00,WUHU216HW,2013-01-13 08:06:00,
2013-01-13 03:11:00,38.3,35.6,30.07,SSW,203,0.0,0.7,90,0.00,,,0.00,WUHU216HW,2013-01-13 08:11:00,
2013-01-13 03:16:00,38.3,35.6,30.07,SSW,203,0.0,0.4,90,0.00,,,0.00,WUHU216HW,2013-01-13 08:16:00,
2013-01-13 03:21:00,38.3,35.6,30.08,SSE,158,0.4,0.4,90,0.00,,,0.00,WUHU216HW,2013-01-13 08:21:00,
2013-01-13 03:26:00,38.3,35.6,30.08,SSE,158,0.2,0.7,90,0.00,,,0.00,WUHU216HW,2013-01-13 08:26:00,
2013-01-13 03:31:00,38.3,35.6,30.07,ESE,113,0.9,1.1,90,0.00,,,0.00,WUHU216HW,2013-01-13 08:31:00,
2013-01-13 03:36:00,38.3,35.6,30.07,ESE,113,0.7,1.8,90,0.00,,,0.00,WUHU216HW,2013-01-13 08:36:00,
2013-01-13 03:41:00,38.3,35.6,30.07,ESE,113,1.1,1.8,90,0.00,,,0.00,WUHU216HW,2013-01-13 08:41:00,
2013-01-13 03:47:00,38.3,35.6,30.06,ESE,113,0.7,1.3,90,0.00,,,0.00,WUHU216HW,2013-01-13 08:47:00,
2013-01-13 03:52:00,38.3,35.6,30.06,ESE,113,0.4,1.1,90,0.00,,,0.00,WUHU216HW,2013-01-13 08:52:00,
2013-01-13 03:57:00,38.3,35.6,30.05,ESE,113,0.0,1.1,90,0.00,,,0.00,WUHU216HW,2013-01-13 08:57:00,
2013-01-13 04:02:00,38.1,35.4,30.06,South,180,0.0,1.1,90,0.00,,,0.00,WUHU216HW,2013-01-13 09:02:00,
2013-01-13 04:07:00,38.0,35.3,30.05,SSE,158,0.0,0.0,90,0.00,,,0.00,WUHU216HW,2013-01-13 09:07:00,
2013-01-13 04:12:00,37.8,35.1,30.05,ESE,113,1.1,1.1,90,0.00,,,0.00,WUHU216HW,2013-01-13 09:12:00,
2013-01-13 04:17:00,38.0,35.3,30.05,ESE,113,0.2,1.1,90,0.00,,,0.00,WUHU216HW,2013-01-13 09:17:00,
2013-01-13 04:23:00,38.0,35.3,30.05,ESE,113,0.0,1.1,90,0.00,,,0.00,WUHU216HW,2013-01-13 09:23:00,
2013-01-13 04:28:00,38.0,35.3,30.05,ESE,113,0.0,0.4,90,0.00,,,0.00,WUHU216HW,2013-01-13 09:28:00,
2013-01-13 04:33:00,38.0,35.3,30.05,ESE,113,0.0,0.0,90,0.00,,,0.00,WUHU216HW,2013-01-13 09:33:00,
2013-01-13 04:38:00,38.0,35.3,30.04,ESE,113,0.7,0.7,90,0.00,,,0.00,WUHU216HW,2013-01-13 09:38:00,
2013-01-13 04:43:00,38.1,35.4,30.03,ESE,113,0.7,1.1,90,0.00,,,0.00,WUHU216HW,2013-01-13 09:43:00,
2013-01-13 04:48:00,38.1,35.4,30.03,ESE,113,0.4,1.6,90,0.00,,,0.00,WUHU216HW,2013-01-13 09:48:00,
2013-01-13 04:53:00,38.1,35.4,30.03,SE,135,0.4,1.6,90,0.00,,,0.00,WUHU216HW,2013-01-13 09:53:00,
2013-01-13 04:58:00,38.1,35.4,30.03,ESE,113,0.4,2.0,90,0.00,,,0.00,WUHU216HW,2013-01-13 09:58:00,
2013-01-13 05:04:00,38.3,35.9,30.03,ESE,113,0.9,2.0,91,0.00,,,0.00,WUHU216HW,2013-01-13 10:04:00,
2013-01-13 05:09:00,38.5,36.1,30.03,SE,135,1.1,1.8,91,0.00,,,0.00,WUHU216HW,2013-01-13 10:09:00,
2013-01-13 05:14:00,38.5,35.8,30.03,SE,135,0.9,2.0,90,0.00,,,0.00,WUHU216HW,2013-01-13 10:14:00,
2013-01-13 05:19:00,38.5,36.1,30.04,ESE,113,1.1,2.0,91,0.00,,,0.00,WUHU216HW,2013-01-13 10:19:00,
2013-01-13 05:24:00,38.5,35.8,30.03,ESE,113,0.9,1.8,90,0.00,,,0.00,WUHU216HW,2013-01-13 10:24:00,
2013-01-13 05:29:00,38.5,36.1,30.04,ESE,113,0.2,1.8,91,0.00,,,0.00,WUHU216HW,2013-01-13 10:29:00,
2013-01-13 05:34:00,38.7,36.0,30.03,East,90,0.9,2.5,90,0.00,,,0.00,WUHU216HW,2013-01-13 10:34:00,
2013-01-13 05:39:00,38.7,36.3,30.03,East,90,1.8,2.5,91,0.00,,,0.00,WUHU216HW,2013-01-13 10:39:00,
2013-01-13 05:44:00,38.7,36.3,30.03,ESE,113,0.2,2.5,91,0.00,,,0.00,WUHU216HW,2013-01-13 10:44:00,
2013-01-13 05:49:00,38.7,36.3,30.03,SE,135,0.0,1.1,91,0.00,,,0.00,WUHU216HW,2013-01-13 10:49:00,
2013-01-13 05:54:00,38.7,36.3,30.03,SE,135,0.0,1.1,91,0.00,,,0.00,WUHU216HW,2013-01-13 10:54:00,
2013-01-13 06:00:00,38.7,36.3,30.04,SE,135,0.0,0.4,91,0.00,,,0.00,WUHU216HW,2013-01-13 11:00:00,
2013-01-13 06:05:00,38.7,36.3,30.04,ESE,113,0.0,0.2,91,0.00,,,0.00,WUHU216HW,2013-01-13 11:05:00,
2013-01-13 06:10:00,38.7,36.3,30.03,ESE,113,1.1,1.1,91,0.00,,,0.00,WUHU216HW,2013-01-13 11:10:00,
2013-01-13 06:15:00,38.7,36.3,30.03,ESE,113,1.6,1.6,91,0.00,,,0.00,WUHU216HW,2013-01-13 11:15:00,
2013-01-13 06:20:00,38.7,36.3,30.03,ESE,113,0.0,1.8,91,0.00,,,0.00,WUHU216HW,2013-01-13 11:20:00,
2013-01-13 06:25:00,38.7,36.3,30.03,SSE,158,1.6,1.8,91,0.00,,,0.00,WUHU216HW,2013-01-13 11:25:00,
2013-01-13 06:30:00,38.7,36.3,30.03,ESE,113,1.1,1.8,91,0.00,,,0.00,WUHU216HW,2013-01-13 11:30:00,
2013-01-13 06:35:00,38.7,36.3,30.03,ESE,113,0.9,1.8,91,0.00,,,0.00,WUHU216HW,2013-01-13 11:35:00,
2013-01-13 06:40:00,38.7,36.3,30.03,ESE,113,0.2,2.2,91,0.00,,,0.00,WUHU216HW,2013-01-13 11:40:00,
2013-01-13 06:46:00,38.7,36.3,30.03,ESE,113,0.4,2.2,91,0.00,,,0.00,WUHU216HW,2013-01-13 11:46:00,
2013-01-13 06:51:00,38.7,36.3,30.04,ENE,68,0.0,1.1,91,0.00,,,0.00,WUHU216HW,2013-01-13 11:51:00,
2013-01-13 06:56:00,38.7,36.3,30.04,ESE,113,1.1,1.1,91,0.00,,,0.00,WUHU216HW,2013-01-13 11:56:00,
2013-01-13 07:01:00,38.7,36.3,30.04,ESE,113,0.0,1.6,91,0.00,,,0.00,WUHU216HW,2013-01-13 12:01:00,
2013-01-13 07:06:00,38.5,36.1,30.04,East,90,0.0,1.6,91,0.00,,,0.00,WUHU216HW,2013-01-13 12:06:00,
2013-01-13 07:11:00,38.7,36.3,30.04,ESE,113,0.0,0.0,91,0.00,,,0.00,WUHU216HW,2013-01-13 12:11:00,
2013-01-13 07:16:00,38.7,36.3,30.05,SSE,158,0.0,0.9,91,0.00,,,0.00,WUHU216HW,2013-01-13 12:16:00,
2013-01-13 07:21:00,38.7,36.3,30.05,SSE,158,0.0,0.9,91,0.00,,,0.00,WUHU216HW,2013-01-13 12:21:00,
2013-01-13 07:26:00,38.7,36.3,30.04,ESE,113,0.9,0.9,91,0.00,,,0.00,WUHU216HW,2013-01-13 12:26:00,
2013-01-13 07:32:00,38.7,36.3,30.04,ESE,113,0.0,0.9,91,0.00,,,0.00,WUHU216HW,2013-01-13 12:32:00,
2013-01-13 07:37:00,38.7,36.3,30.05,NNE,23,0.0,0.9,91,0.00,,,0.00,WUHU216HW,2013-01-13 12:37:00,
2013-01-13 07:42:00,38.7,36.3,30.05,ESE,113,0.4,0.9,91,0.00,,,0.00,WUHU216HW,2013-01-13 12:42:00,
2013-01-13 07:47:00,38.7,36.3,30.05,East,90,0.4,0.9,91,0.00,,,0.00,WUHU216HW,2013-01-13 12:47:00,
2013-01-13 07:52:00,38.7,36.3,30.05,ENE,68,0.0,0.7,91,0.00,,,0.00,WUHU216HW,2013-01-13 12:52:00,
2013-01-13 07:57:00,38.7,36.3,30.05,ENE,68,0.0,0.4,91,0.00,,,0.00,WUHU216HW,2013-01-13 12:57:00,
2013-01-13 08:02:00,38.7,36.3,30.05,East,90,0.7,0.7,91,0.00,,,0.00,WUHU216HW,2013-01-13 13:02:00,
2013-01-13 08:07:00,38.7,36.3,30.05,ESE,113,0.0,0.7,91,0.00,,,0.00,WUHU216HW,2013-01-13 13:07:00,
2013-01-13 08:12:00,38.7,36.3,30.05,East,90,0.0,0.7,91,0.00,,,0.00,WUHU216HW,2013-01-13 13:12:00,
2013-01-13 08:17:00,38.9,36.5,30.06,ESE,113,0.0,0.4,91,0.00,,,0.00,WUHU216HW,2013-01-13 13:17:00,
2013-01-13 08:22:00,38.9,36.5,30.06,ESE,113,0.2,0.4,91,0.00,,,0.00,WUHU216HW,2013-01-13 13:22:00,
2013-01-13 08:27:00,39.0,36.5,30.06,NE,45,1.3,1.8,91,0.00,,,0.00,WUHU216HW,2013-01-13 13:27:00,
2013-01-13 08:32:00,39.0,36.5,30.05,ENE,68,1.1,1.8,91,0.00,,,0.00,WUHU216HW,2013-01-13 13:32:00,
2013-01-13 08:38:00,39.2,36.7,30.05,North,0,0.0,1.3,91,0.00,,,0.00,WUHU216HW,2013-01-13 13:38:00,
2013-01-13 08:43:00,39.4,36.9,30.05,North,0,0.0,1.1,91,0.00,,,0.00,WUHU216HW,2013-01-13 13:43:00,
2013-01-13 08:48:00,39.4,36.9,30.05,NE,45,0.0,1.1,91,0.00,,,0.00,WUHU216HW,2013-01-13 13:48:00,
2013-01-13 08:53:00,39.4,36.9,30.06,North,0,0.0,0.4,91,0.00,,,0.00,WUHU216HW,2013-01-13 13:53:00,
2013-01-13 08:58:00,39.4,36.9,30.06,NW,315,0.0,0.4,91,0.00,,,0.00,WUHU216HW,2013-01-13 13:58:00,
2013-01-13 09:03:00,39.6,37.1,30.06,SSE,158,0.0,1.6,91,0.00,,,0.00,WUHU216HW,2013-01-13 14:03:00,
2013-01-13 09:08:00,39.6,37.1,30.06,WSW,248,0.4,1.6,91,0.00,,,0.00,WUHU216HW,2013-01-13 14:08:00,
2013-01-13 09:13:00,39.8,37.3,30.06,WSW,248,0.0,1.1,91,0.00,,,0.00,WUHU216HW,2013-01-13 14:13:00,
2013-01-13 09:18:00,39.6,37.1,30.05,West,270,0.0,0.4,91,0.00,,,0.00,WUHU216HW,2013-01-13 14:18:00,
2013-01-13 09:23:00,39.8,37.3,30.06,WSW,248,0.0,0.0,91,0.00,,,0.00,WUHU216HW,2013-01-13 14:23:00,
2013-01-13 09:28:00,39.8,37.3,30.06,WSW,248,0.0,0.0,91,0.00,,,0.00,WUHU216HW,2013-01-13 14:28:00,
2013-01-13 09:33:00,39.9,37.4,30.06,WSW,248,0.0,0.0,91,0.00,,,0.00,WUHU216HW,2013-01-13 14:33:00,
2013-01-13 09:38:00,39.9,37.4,30.06,WSW,248,0.0,0.0,91,0.00,,,0.00,WUHU216HW,2013-01-13 14:38:00,
2013-01-13 09:43:00,40.1,37.6,30.06,ESE,113,1.8,1.8,91,0.00,,,0.00,WUHU216HW,2013-01-13 14:43:00,
2013-01-13 09:49:00,40.1,37.6,30.07,WSW,248,0.0,1.8,91,0.00,,,0.00,WUHU216HW,2013-01-13 14:49:00,
2013-01-13 09:54:00,40.1,37.6,30.07,SSE,158,0.2,1.3,91,0.00,,,0.00,WUHU216HW,2013-01-13 14:54:00,
2013-01-13 09:59:00,40.3,37.8,30.07,SE,135,0.4,1.8,91,0.00,,,0.00,WUHU216HW,2013-01-13 14:59:00,
2013-01-13 10:04:00,40.5,38.0,30.07,SE,135,0.0,1.8,91,0.00,,,0.00,WUHU216HW,2013-01-13 15:04:00,
2013-01-13 10:09:00,40.5,38.0,30.07,ESE,113,1.1,2.0,91,0.00,,,0.00,WUHU216HW,2013-01-13 15:09:00,
2013-01-13 10:14:00,40.7,38.2,30.07,SE,135,1.6,2.0,91,0.00,,,0.00,WUHU216HW,2013-01-13 15:14:00,
2013-01-13 10:19:00,40.8,38.3,30.07,ESE,113,1.3,2.0,91,0.00,,,0.00,WUHU216HW,2013-01-13 15:19:00,
2013-01-13 10:24:00,40.8,38.3,30.07,NE,45,0.7,2.0,91,0.00,,,0.00,WUHU216HW,2013-01-13 15:24:00,
2013-01-13 10:29:00,40.8,38.3,30.07,SSE,158,0.2,2.2,91,0.00,,,0.00,WUHU216HW,2013-01-13 15:29:00,
2013-01-13 10:34:00,41.0,38.5,30.07,SE,135,1.3,2.5,91,0.00,,,0.00,WUHU216HW,2013-01-13 15:34:00,
2013-01-13 10:39:00,41.2,38.7,30.06,East,90,1.8,2.9,91,0.00,,,0.00,WUHU216HW,2013-01-13 15:39:00,
2013-01-13 10:44:00,41.2,38.7,30.06,SE,135,2.0,3.4,91,0.00,,,0.00,WUHU216HW,2013-01-13 15:44:00,
2013-01-13 10:49:00,41.4,38.9,30.06,ESE,113,1.8,3.4,91,0.00,,,0.00,WUHU216HW,2013-01-13 15:49:00,
2013-01-13 10:54:00,41.4,38.9,30.06,SE,135,3.6,3.6,91,0.00,,,0.00,WUHU216HW,2013-01-13 15:54:00,
2013-01-13 10:59:00,41.6,39.1,30.06,South,180,0.4,3.6,91,0.00,,,0.00,WUHU216HW,2013-01-13 15:59:00,
2013-01-13 11:04:00,41.6,39.1,30.06,SE,135,0.9,3.6,91,0.00,,,0.00,WUHU216HW,2013-01-13 16:04:00,
2013-01-13 11:10:00,41.6,39.1,30.06,East,90,0.2,2.0,91,0.00,,,0.00,WUHU216HW,2013-01-13 16:10:00,
2013-01-13 11:15:00,41.7,39.2,30.05,SE,135,2.7,3.8,91,0.00,,,0.00,WUHU216HW,2013-01-13 16:15:00,
2013-01-13 11:20:00,41.7,39.2,30.05,SE,135,2.0,3.8,91,0.00,,,0.00,WUHU216HW,2013-01-13 16:20:00,
2013-01-13 11:25:00,41.7,39.2,30.05,ESE,113,0.4,2.7,91,0.00,,,0.00,WUHU216HW,2013-01-13 16:25:00,
2013-01-13 11:30:00,41.7,39.2,30.05,NW,315,0.4,2.7,91,0.00,,,0.00,WUHU216HW,2013-01-13 16:30:00,
2013-01-13 11:35:00,41.7,39.2,30.05,ESE,113,0.4,0.9,91,0.00,,,0.00,WUHU216HW,2013-01-13 16:35:00,
2013-01-13 11:40:00,41.9,39.4,30.05,SE,135,0.4,0.7,91,0.00,,,0.00,WUHU216HW,2013-01-13 16:40:00,
2013-01-13 11:45:00,41.9,39.4,30.05,SE,135,0.4,1.3,91,0.00,,,0.00,WUHU216HW,2013-01-13 16:45:00,
2013-01-13 11:50:00,41.9,39.4,30.05,SSE,158,1.1,1.8,91,0.00,,,0.00,WUHU216HW,2013-01-13 16:50:00,
2013-01-13 11:55:00,41.9,39.4,30.04,ESE,113,0.2,2.2,91,0.00,,,0.00,WUHU216HW,2013-01-13 16:55:00,
2013-01-13 12:00:00,41.9,39.4,30.04,SE,135,0.2,2.2,91,0.00,,,0.00,WUHU216HW,2013-01-13 17:00:00,
2013-01-13 12:05:00,42.1,39.6,30.04,East,90,0.0,0.9,91,0.00,,,0.00,WUHU216HW,2013-01-13 17:05:00,
2013-01-13 12:10:00,42.1,39.6,30.04,SE,135,0.4,0.9,91,0.00,,,0.00,WUHU216HW,2013-01-13 17:10:00,
2013-01-13 12:15:00,42.1,39.6,30.03,ESE,113,0.9,0.9,91,0.00,,,0.00,WUHU216HW,2013-01-13 17:15:00,
2013-01-13 12:20:00,42.1,39.6,30.02,SE,135,0.0,0.9,91,0.00,,,0.00,WUHU216HW,2013-01-13 17:20:00,
2013-01-13 12:26:00,42.1,39.6,30.02,SE,135,0.2,1.1,91,0.00,,,0.00,WUHU216HW,2013-01-13 17:26:00,
2013-01-13 12:31:00,42.3,39.8,30.03,SSE,158,0.4,1.1,91,0.00,,,0.00,WUHU216HW,2013-01-13 17:31:00,
2013-01-13 12:35:00,42.3,39.8,30.02,SE,135,1.6,4.0,91,0.00,,,0.00,WUHU216HW,2013-01-13 17:35:00,
2013-01-13 12:41:00,42.3,39.8,30.01,South,180,0.2,4.0,91,0.00,,,0.00,WUHU216HW,2013-01-13 17:41:00,
2013-01-13 12:46:00,42.3,39.8,30.02,NE,45,0.4,3.1,91,0.00,,,0.00,WUHU216HW,2013-01-13 17:46:00,
2013-01-13 12:51:00,42.5,40.0,30.02,ESE,113,0.4,1.3,91,0.00,,,0.00,WUHU216HW,2013-01-13 17:51:00,
2013-01-13 12:56:00,42.5,40.0,30.01,ESE,113,0.7,2.0,91,0.00,,,0.00,WUHU216HW,2013-01-13 17:56:00,
2013-01-13 13:01:00,42.6,40.1,30.01,SE,135,1.8,2.2,91,0.00,,,0.00,WUHU216HW,2013-01-13 18:01:00,
2013-01-13 13:06:00,42.6,40.1,30.00,SE,135,0.4,2.2,91,0.00,,,0.00,WUHU216HW,2013-01-13 18:06:00,
2013-01-13 13:11:00,42.6,40.1,30.00,SSE,158,1.1,2.2,91,0.00,,,0.00,WUHU216HW,2013-01-13 18:11:00,
2013-01-13 13:16:00,42.8,40.3,30.00,SSE,158,1.1,2.9,91,0.00,,,0.00,WUHU216HW,2013-01-13 18:16:00,
2013-01-13 13:21:00,43.0,40.5,30.00,WNW,293,2.0,2.9,91,0.00,,,0.00,WUHU216HW,2013-01-13 18:21:00,
2013-01-13 13:26:00,43.0,40.5,29.99,SE,135,1.6,3.8,91,0.00,,,0.00,WUHU216HW,2013-01-13 18:26:00,
2013-01-13 13:31:00,43.0,40.5,29.99,ESE,113,1.8,3.8,91,0.00,,,0.00,WUHU216HW,2013-01-13 18:31:00,
2013-01-13 13:36:00,43.0,40.5,29.99,ESE,113,1.1,1.8,91,0.00,,,0.00,WUHU216HW,2013-01-13 18:36:00,
2013-01-13 13:41:00,43.0,40.5,29.99,East,90,0.7,2.0,91,0.00,,,0.00,WUHU216HW,2013-01-13 18:41:00,
2013-01-13 13:46:00,43.0,40.5,29.99,ESE,113,0.0,2.0,91,0.00,,,0.00,WUHU216HW,2013-01-13 18:46:00,
2013-01-13 13:51:00,43.0,40.5,29.99,SSE,158,1.1,1.3,91,0.00,,,0.00,WUHU216HW,2013-01-13 18:51:00,
2013-01-13 13:57:00,43.0,40.5,30.00,SE,135,0.0,1.3,91,0.00,,,0.00,WUHU216HW,2013-01-13 18:57:00,
2013-01-13 14:02:00,43.0,40.5,30.00,ESE,113,1.8,1.8,91,0.00,,,0.00,WUHU216HW,2013-01-13 19:02:00,
2013-01-13 14:07:00,43.0,40.5,30.00,SSE,158,1.6,1.8,91,0.00,,,0.00,WUHU216HW,2013-01-13 19:07:00,
2013-01-13 14:12:00,43.0,40.5,30.00,ESE,113,0.4,1.6,91,0.00,,,0.00,WUHU216HW,2013-01-13 19:12:00,
2013-01-13 14:17:00,43.0,40.5,30.00,ESE,113,1.3,1.6,91,0.00,,,0.00,WUHU216HW,2013-01-13 19:17:00,
2013-01-13 14:22:00,43.0,40.5,30.00,ESE,113,0.0,1.8,91,0.00,,,0.00,WUHU216HW,2013-01-13 19:22:00,
2013-01-13 14:27:00,43.0,40.5,29.99,ESE,113,0.4,3.6,91,0.00,,,0.00,WUHU216HW,2013-01-13 19:27:00,
2013-01-13 14:32:00,43.0,40.5,29.99,ENE,68,0.2,3.6,91,0.00,,,0.00,WUHU216HW,2013-01-13 19:32:00,
2013-01-13 14:37:00,43.0,40.5,29.99,NW,315,0.0,2.5,91,0.00,,,0.00,WUHU216HW,2013-01-13 19:37:00,
2013-01-13 14:42:00,43.0,40.5,29.99,SE,135,1.6,1.6,91,0.00,,,0.00,WUHU216HW,2013-01-13 19:42:00,
2013-01-13 14:47:00,43.0,40.5,30.00,ESE,113,0.7,2.5,91,0.00,,,0.00,WUHU216HW,2013-01-13 19:47:00,
2013-01-13 14:52:00,43.0,40.5,29.99,SSE,158,1.8,2.7,91,0.00,,,0.00,WUHU216HW,2013-01-13 19:52:00,
2013-01-13 14:58:00,43.2,40.7,29.99,ESE,113,0.4,2.7,91,0.00,,,0.00,WUHU216HW,2013-01-13 19:58:00,
2013-01-13 15:03:00,43.2,40.7,29.98,SSE,158,0.2,4.5,91,0.00,,,0.00,WUHU216HW,2013-01-13 20:03:00,
2013-01-13 15:08:00,43.2,40.7,29.98,ESE,113,0.4,4.5,91,0.00,,,0.00,WUHU216HW,2013-01-13 20:08:00,
2013-01-13 15:13:00,43.2,40.7,29.98,SSE,158,0.7,2.5,91,0.00,,,0.00,WUHU216HW,2013-01-13 20:13:00,
2013-01-13 15:18:00,43.2,40.7,29.98,East,90,1.3,3.1,91,0.00,,,0.00,WUHU216HW,2013-01-13 20:18:00,
2013-01-13 15:23:00,43.2,40.7,29.98,East,90,1.1,3.1,91,0.00,,,0.00,WUHU216HW,2013-01-13 20:23:00,
2013-01-13 15:28:00,43.2,40.7,29.98,ENE,68,0.0,2.2,91,0.00,,,0.00,WUHU216HW,2013-01-13 20:28:00,
2013-01-13 15:33:00,43.2,40.7,29.98,SE,135,1.1,1.3,91,0.00,,,0.00,WUHU216HW,2013-01-13 20:33:00,
2013-01-13 15:38:00,43.2,40.7,29.99,SE,135,1.6,1.6,91,0.00,,,0.00,WUHU216HW,2013-01-13 20:38:00,
2013-01-13 15:43:00,43.0,40.5,29.99,West,270,1.8,1.8,91,0.00,,,0.00,WUHU216HW,2013-01-13 20:43:00,
2013-01-13 15:48:00,43.0,40.5,29.98,SE,135,1.6,1.8,91,0.00,,,0.00,WUHU216HW,2013-01-13 20:48:00,
2013-01-13 15:53:00,43.0,40.5,29.99,SSW,203,0.2,2.7,91,0.00,,,0.00,WUHU216HW,2013-01-13 20:53:00,
2013-01-13 15:58:00,43.0,40.5,29.98,East,90,0.4,2.7,91,0.00,,,0.00,WUHU216HW,2013-01-13 20:58:00,
2013-01-13 16:03:00,43.0,40.5,29.99,SE,135,1.1,1.8,91,0.00,,,0.00,WUHU216HW,2013-01-13 21:03:00,
2013-01-13 16:09:00,43.0,40.5,29.99,ESE,113,0.4,2.7,91,0.00,,,0.00,WUHU216HW,2013-01-13 21:09:00,
2013-01-13 16:14:00,43.0,40.5,29.98,SE,135,1.1,3.4,91,0.00,,,0.00,WUHU216HW,2013-01-13 21:14:00,
2013-01-13 16:19:00,43.0,40.5,29.98,SSE,158,1.6,3.4,91,0.00,,,0.00,WUHU216HW,2013-01-13 21:19:00,
2013-01-13 16:24:00,43.0,40.5,29.98,SE,135,2.9,2.9,91,0.00,,,0.00,WUHU216HW,2013-01-13 21:24:00,
2013-01-13 16:29:00,43.0,40.5,30.00,SW,225,0.0,2.9,91,0.00,,,0.00,WUHU216HW,2013-01-13 21:29:00,
2013-01-13 16:34:00,43.0,40.5,29.99,SE,135,1.1,2.9,91,0.00,,,0.00,WUHU216HW,2013-01-13 21:34:00,
2013-01-13 16:39:00,42.8,40.3,29.99,South,180,1.1,2.9,91,0.00,,,0.00,WUHU216HW,2013-01-13 21:39:00,
2013-01-13 16:44:00,42.8,40.3,29.99,SE,135,1.8,2.9,91,0.00,,,0.00,WUHU216HW,2013-01-13 21:44:00,
2013-01-13 16:49:00,42.8,40.3,29.99,SSE,158,2.2,2.2,91,0.00,,,0.00,WUHU216HW,2013-01-13 21:49:00,
2013-01-13 16:54:00,42.8,40.6,29.98,East,90,5.6,5.6,92,0.00,,,0.00,WUHU216HW,2013-01-13 21:54:00,
2013-01-13 16:59:00,42.6,40.1,29.98,SSE,158,1.3,5.6,91,0.00,,,0.00,WUHU216HW,2013-01-13 21:59:00,
2013-01-13 17:04:00,42.6,40.1,29.98,NNW,338,0.4,5.6,91,0.00,,,0.00,WUHU216HW,2013-01-13 22:04:00,
2013-01-13 17:09:00,42.6,40.1,29.98,SE,135,2.0,2.0,91,0.00,,,0.00,WUHU216HW,2013-01-13 22:09:00,
2013-01-13 17:14:00,42.6,40.1,29.98,SSW,203,0.9,2.0,91,0.00,,,0.00,WUHU216HW,2013-01-13 22:14:00,
2013-01-13 17:19:00,42.6,40.1,29.97,ESE,113,2.0,2.5,91,0.00,,,0.00,WUHU216HW,2013-01-13 22:19:00,
2013-01-13 17:24:00,42.6,40.1,29.97,East,90,1.1,2.5,91,0.00,,,0.00,WUHU216HW,2013-01-13 22:24:00,
2013-01-13 17:30:00,42.6,40.1,29.96,ESE,113,0.0,2.0,91,0.00,,,0.00,WUHU216HW,2013-01-13 22:30:00,
2013-01-13 17:35:00,42.6,40.1,29.97,SE,135,2.5,2.5,91,0.00,,,0.00,WUHU216HW,2013-01-13 22:35:00,
2013-01-13 17:40:00,42.6,40.1,29.98,SE,135,1.6,2.5,91,0.00,,,0.00,WUHU216HW,2013-01-13 22:40:00,
2013-01-13 17:45:00,42.5,40.0,29.97,South,180,0.4,2.5,91,0.00,,,0.00,WUHU216HW,2013-01-13 22:45:00,
2013-01-13 17:50:00,42.5,40.0,29.98,SE,135,0.0,2.0,91,0.00,,,0.00,WUHU216HW,2013-01-13 22:50:00,
2013-01-13 17:55:00,42.6,40.1,29.98,SE,135,0.2,1.8,91,0.00,,,0.00,WUHU216HW,2013-01-13 22:55:00,
2013-01-13 18:00:00,42.6,40.1,29.98,East,90,0.4,1.8,91,0.00,,,0.00,WUHU216HW,2013-01-13 23:00:00,
2013-01-13 18:05:00,42.6,40.1,29.98,SW,225,0.0,1.6,91,0.00,,,0.00,WUHU216HW,2013-01-13 23:05:00,
2013-01-13 18:10:00,42.6,40.1,29.97,East,90,0.4,1.8,91,0.00,,,0.00,WUHU216HW,2013-01-13 23:10:00,
2013-01-13 18:15:00,42.6,40.1,29.97,SSE,158,0.4,1.8,91,0.00,,,0.00,WUHU216HW,2013-01-13 23:15:00,
2013-01-13 18:20:00,42.6,40.1,29.98,WSW,248,1.6,1.6,91,0.00,,,0.00,WUHU216HW,2013-01-13 23:20:00,
2013-01-13 18:25:00,42.6,40.1,29.98,West,270,0.0,1.6,91,0.00,,,0.00,WUHU216HW,2013-01-13 23:25:00,
2013-01-13 18:30:00,42.6,40.1,29.98,SW,225,1.8,1.8,91,0.00,,,0.00,WUHU216HW,2013-01-13 23:30:00,
2013-01-13 18:35:00,42.6,40.1,29.98,West,270,0.4,2.2,91,0.00,,,0.00,WUHU216HW,2013-01-13 23:35:00,
2013-01-13 18:40:00,42.8,40.3,29.98,South,180,1.1,2.2,91,0.00,,,0.00,WUHU216HW,2013-01-13 23:40:00,
2013-01-13 18:45:00,42.8,40.3,29.98,SW,225,0.4,1.6,91,0.00,,,0.00,WUHU216HW,2013-01-13 23:45:00,
2013-01-13 18:50:00,43.0,40.5,29.97,ESE,113,0.9,1.8,91,0.00,,,0.00,WUHU216HW,2013-01-13 23:50:00,
2013-01-13 18:55:00,43.0,40.5,29.97,ESE,113,0.2,1.8,91,0.00,,,0.00,WUHU216HW,2013-01-13 23:55:00,
2013-01-13 19:00:00,43.0,40.5,29.97,SW,225,0.4,1.8,91,0.00,,,0.00,WUHU216HW,2013-01-14 00:00:00,
2013-01-13 19:05:00,43.0,40.5,29.97,SE,135,2.2,2.2,91,0.00,,,0.00,WUHU216HW,2013-01-14 00:05:00,
2013-01-13 19:10:00,43.0,40.5,29.97,WSW,248,0.4,2.7,91,0.00,,,0.00,WUHU216HW,2013-01-14 00:10:00,
2013-01-13 19:15:00,43.0,40.5,29.97,SSE,158,1.6,2.7,91,0.00,,,0.00,WUHU216HW,2013-01-14 00:15:00,
2013-01-13 19:21:00,43.2,40.7,29.97,South,180,1.1,4.0,91,0.00,,,0.00,WUHU216HW,2013-01-14 00:21:00,
2013-01-13 19:26:00,43.2,40.7,29.97,South,180,2.5,4.0,91,0.00,,,0.00,WUHU216HW,2013-01-14 00:26:00,
2013-01-13 19:31:00,43.4,40.9,29.97,South,180,0.7,2.5,91,0.00,,,0.00,WUHU216HW,2013-01-14 00:31:00,
2013-01-13 19:36:00,43.4,40.9,29.97,SSW,203,4.5,4.5,91,0.00,,,0.00,WUHU216HW,2013-01-14 00:36:00,
2013-01-13 19:41:00,43.4,40.9,29.97,WSW,248,1.6,4.5,91,0.00,,,0.00,WUHU216HW,2013-01-14 00:41:00,
2013-01-13 19:46:00,43.5,41.0,29.97,SSW,203,0.2,4.3,91,0.00,,,0.00,WUHU216HW,2013-01-14 00:46:00,
2013-01-13 19:51:00,43.5,41.0,29.97,SW,225,0.7,4.3,91,0.00,,,0.00,WUHU216HW,2013-01-14 00:51:00,
2013-01-13 19:56:00,43.5,41.0,29.97,SSW,203,1.3,2.5,91,0.00,,,0.00,WUHU216HW,2013-01-14 00:56:00,
2013-01-13 20:01:00,43.7,41.2,29.96,WSW,248,2.2,4.3,91,0.00,,,0.00,WUHU216HW,2013-01-14 01:01:00,
2013-01-13 20:07:00,43.7,41.2,29.96,West,270,1.1,4.3,91,0.00,,,0.00,WUHU216HW,2013-01-14 01:07:00,
2013-01-13 20:12:00,43.7,41.2,29.97,SW,225,2.5,2.7,91,0.00,,,0.00,WUHU216HW,2013-01-14 01:12:00,
2013-01-13 20:17:00,43.7,41.2,29.97,WSW,248,1.1,3.4,91,0.00,,,0.00,WUHU216HW,2013-01-14 01:17:00,
2013-01-13 20:22:00,43.7,41.2,29.97,WSW,248,0.4,3.8,91,0.00,,,0.00,WUHU216HW,2013-01-14 01:22:00,
2013-01-13 20:27:00,43.7,41.2,29.97,WSW,248,1.8,4.0,91,0.00,,,0.00,WUHU216HW,2013-01-14 01:27:00,
2013-01-13 20:32:00,43.7,41.2,29.96,SW,225,0.7,4.0,91,0.00,,,0.00,WUHU216HW,2013-01-14 01:32:00,
2013-01-13 20:37:00,43.7,41.2,29.96,South,180,3.1,3.8,91,0.00,,,0.00,WUHU216HW,2013-01-14 01:37:00,
2013-01-13 20:42:00,43.7,41.2,29.96,SW,225,0.9,3.8,91,0.00,,,0.00,WUHU216HW,2013-01-14 01:42:00,
2013-01-13 20:48:00,43.7,41.2,29.96,WSW,248,0.4,3.1,91,0.00,,,0.00,WUHU216HW,2013-01-14 01:48:00,
2013-01-13 20:53:00,43.5,41.0,29.96,WSW,248,0.7,3.1,91,0.00,,,0.00,WUHU216HW,2013-01-14 01:53:00,
2013-01-13 20:58:00,43.5,41.0,29.96,SSE,158,0.7,2.9,91,0.00,,,0.00,WUHU216HW,2013-01-14 01:58:00,
2013-01-13 21:03:00,43.5,41.0,29.96,SSW,203,1.8,2.9,91,0.00,,,0.00,WUHU216HW,2013-01-14 02:03:00,
2013-01-13 21:08:00,43.5,41.0,29.96,SE,135,0.4,2.9,91,0.00,,,0.00,WUHU216HW,2013-01-14 02:08:00,
2013-01-13 21:13:00,43.5,41.0,29.96,SW,225,0.9,2.2,91,0.00,,,0.00,WUHU216HW,2013-01-14 02:13:00,
2013-01-13 21:18:00,43.5,41.0,29.96,SSE,158,0.7,2.7,91,0.00,,,0.00,WUHU216HW,2013-01-14 02:18:00,
2013-01-13 21:23:00,43.4,40.9,29.96,SSE,158,0.9,2.7,91,0.00,,,0.00,WUHU216HW,2013-01-14 02:23:00,
2013-01-13 21:29:00,43.4,40.9,29.96,South,180,0.9,2.5,91,0.00,,,0.00,WUHU216HW,2013-01-14 02:29:00,
2013-01-13 21:34:00,43.4,40.9,29.96,SW,225,1.6,2.2,91,0.00,,,0.00,WUHU216HW,2013-01-14 02:34:00,
2013-01-13 21:39:00,43.4,40.9,29.96,SSW,203,1.1,3.1,91,0.00,,,0.00,WUHU216HW,2013-01-14 02:39:00,
2013-01-13 21:44:00,43.4,40.9,29.96,SSW,203,0.4,3.1,91,0.00,,,0.00,WUHU216HW,2013-01-14 02:44:00,
2013-01-13 21:49:00,43.4,40.9,29.95,SSW,203,0.0,2.5,91,0.00,,,0.00,WUHU216HW,2013-01-14 02:49:00,
2013-01-13 21:54:00,43.4,40.9,29.95,West,270,0.4,2.5,91,0.00,,,0.00,WUHU216HW,2013-01-14 02:54:00,
2013-01-13 21:59:00,43.4,40.9,29.96,SSW,203,0.0,1.3,91,0.00,,,0.00,WUHU216HW,2013-01-14 02:59:00,
2013-01-13 22:04:00,43.4,40.9,29.96,SSW,203,0.0,1.1,91,0.00,,,0.00,WUHU216HW,2013-01-14 03:04:00,
2013-01-13 22:10:00,43.4,40.9,29.95,ESE,113,0.0,1.1,91,0.00,,,0.00,WUHU216HW,2013-01-14 03:10:00,
2013-01-13 22:15:00,43.4,40.9,29.95,SE,135,1.1,1.1,91,0.00,,,0.00,WUHU216HW,2013-01-14 03:15:00,
2013-01-13 22:20:00,43.4,40.9,29.96,WSW,248,0.0,1.8,91,0.00,,,0.00,WUHU216HW,2013-01-14 03:20:00,
2013-01-13 22:25:00,43.4,40.9,29.96,SE,135,0.0,1.8,91,0.00,,,0.00,WUHU216HW,2013-01-14 03:25:00,
2013-01-13 22:30:00,43.4,40.9,29.96,NNE,23,0.0,0.7,91,0.00,,,0.00,WUHU216HW,2013-01-14 03:30:00,
2013-01-13 22:35:00,43.5,41.0,29.95,SE,135,0.4,1.1,91,0.00,,,0.00,WUHU216HW,2013-01-14 03:35:00,
2013-01-13 22:40:00,43.5,41.0,29.95,West,270,0.0,1.1,91,0.00,,,0.00,WUHU216HW,2013-01-14 03:40:00,
2013-01-13 22:45:00,43.5,41.0,29.95,West,270,0.0,0.7,91,0.00,,,0.00,WUHU216HW,2013-01-14 03:45:00,
2013-01-13 22:51:00,43.5,41.0,29.95,West,270,0.0,0.7,91,0.00,,,0.00,WUHU216HW,2013-01-14 03:51:00,
2013-01-13 22:56:00,43.5,41.0,29.95,WNW,293,0.4,0.7,91,0.00,,,0.00,WUHU216HW,2013-01-14 03:56:00,
2013-01-13 23:01:00,43.5,41.3,29.95,West,270,0.7,1.1,92,0.00,,,0.00,WUHU216HW,2013-01-14 04:01:00,
2013-01-13 23:06:00,43.4,40.9,29.95,WSW,248,0.2,1.3,91,0.00,,,0.00,WUHU216HW,2013-01-14 04:06:00,
2013-01-13 23:11:00,43.5,41.0,29.96,SW,225,0.9,1.6,91,0.00,,,0.00,WUHU216HW,2013-01-14 04:11:00,
2013-01-13 23:16:00,43.5,41.0,29.95,SW,225,0.0,1.6,91,0.00,,,0.00,WUHU216HW,2013-01-14 04:16:00,
2013-01-13 23:21:00,43.5,41.3,29.95,SE,135,0.7,1.8,92,0.00,,,0.00,WUHU216HW,2013-01-14 04:21:00,
2013-01-13 23:26:00,43.7,41.5,29.95,SSE,158,0.2,1.8,92,0.00,,,0.00,WUHU216HW,2013-01-14 04:26:00,
2013-01-13 23:32:00,43.7,41.2,29.95,West,270,0.7,1.1,91,0.00,,,0.00,WUHU216HW,2013-01-14 04:32:00,
2013-01-13 23:37:00,43.7,41.2,29.95,WSW,248,0.0,0.7,91,0.00,,,0.00,WUHU216HW,2013-01-14 04:37:00,
2013-01-13 23:42:00,43.7,41.2,29.94,SE,135,1.1,1.1,91,0.00,,,0.00,WUHU216HW,2013-01-14 04:42:00,
2013-01-13 23:47:00,43.7,41.5,29.95,SW,225,0.0,1.1,92,0.00,,,0.00,WUHU216HW,2013-01-14 04:47:00,
2013-01-13 23:52:00,43.7,41.5,29.95,West,270,0.7,2.5,92,0.00,,,0.00,WUHU216HW,2013-01-14 04:52:00,
2013-01-13 23:57:00,43.7,41.5,29.94,West,270,0.0,2.5,92,0.00,,,0.00,WUHU216HW,2013-01-14 04:57:00,